sensor_id;sensor_type;location;lat;lon;timestamp;temperature;humidity
14401;DHT22;7285;50.894;5.462;2023-03-14T00:00:51;9.60;1.00
14401;DHT22;7285;50.894;5.462;2023-03-14T00:03:18;9.60;1.00
14401;DHT22;7285;50.894;5.462;2023-03-14T00:05:45;9.70;99.90
14401;DHT22;7285;50.894;5.462;2023-03-14T00:08:12;9.60;99.90
14401;DHT22;7285;50.894;5.462;2023-03-14T00:10:39;9.60;1.00
14401;DHT22;7285;50.894;5.462;2023-03-14T00:13:06;9.70;1.00
14401;DHT22;7285;50.894;5.462;2023-03-14T00:15:35;9.80;1.00
14401;DHT22;7285;50.894;5.462;2023-03-14T00:18:02;9.80;1.00
14401;DHT22;7285;50.894;5.462;2023-03-14T00:20:29;9.80;99.90
14401;DHT22;7285;50.894;5.462;2023-03-14T00:22:56;9.80;1.00
14401;DHT22;7285;50.894;5.462;2023-03-14T00:25:23;9.90;54.20
14401;DHT22;7285;50.894;5.462;2023-03-14T00:27:50;9.90;1.00
14401;DHT22;7285;50.894;5.462;2023-03-14T00:30:18;9.90;99.90
14401;DHT22;7285;50.894;5.462;2023-03-14T00:32:46;9.90;1.00
14401;DHT22;7285;50.894;5.462;2023-03-14T00:35:13;9.90;99.90
14401;DHT22;7285;50.894;5.462;2023-03-14T00:37:41;9.90;99.90
14401;DHT22;7285;50.894;5.462;2023-03-14T00:40:09;9.90;1.00
14401;DHT22;7285;50.894;5.462;2023-03-14T00:42:36;9.90;1.00
14401;DHT22;7285;50.894;5.462;2023-03-14T00:45:04;9.90;1.00
14401;DHT22;7285;50.894;5.462;2023-03-14T00:47:33;9.80;1.00
14401;DHT22;7285;50.894;5.462;2023-03-14T00:50:01;9.80;99.90
14401;DHT22;7285;50.894;5.462;2023-03-14T00:52:28;9.80;17.40
14401;DHT22;7285;50.894;5.462;2023-03-14T00:54:55;9.80;99.90
14401;DHT22;7285;50.894;5.462;2023-03-14T00:57:22;9.80;1.00
14401;DHT22;7285;50.894;5.462;2023-03-14T00:59:50;9.80;99.90
14401;DHT22;7285;50.894;5.462;2023-03-14T01:02:18;9.90;1.00
14401;DHT22;7285;50.894;5.462;2023-03-14T01:04:47;9.90;1.00
14401;DHT22;7285;50.894;5.462;2023-03-14T01:07:15;9.90;99.90
14401;DHT22;7285;50.894;5.462;2023-03-14T01:09:42;10.00;1.00
14401;DHT22;7285;50.894;5.462;2023-03-14T01:12:09;10.00;1.00
14401;DHT22;7285;50.894;5.462;2023-03-14T01:14:36;10.00;99.90
14401;DHT22;7285;50.894;5.462;2023-03-14T01:17:03;9.90;1.00
14401;DHT22;7285;50.894;5.462;2023-03-14T01:19:30;10.00;99.90
14401;DHT22;7285;50.894;5.462;2023-03-14T01:21:57;10.00;99.90
14401;DHT22;7285;50.894;5.462;2023-03-14T01:24:26;9.90;99.90
14401;DHT22;7285;50.894;5.462;2023-03-14T01:26:53;9.90;1.00
14401;DHT22;7285;50.894;5.462;2023-03-14T01:29:21;9.90;99.90
14401;DHT22;7285;50.894;5.462;2023-03-14T01:31:48;9.90;99.90
14401;DHT22;7285;50.894;5.462;2023-03-14T01:34:15;9.90;99.90
14401;DHT22;7285;50.894;5.462;2023-03-14T01:36:42;9.90;1.00
14401;DHT22;7285;50.894;5.462;2023-03-14T01:39:08;9.80;1.00
14401;DHT22;7285;50.894;5.462;2023-03-14T01:41:37;9.80;1.00
14401;DHT22;7285;50.894;5.462;2023-03-14T01:44:04;9.90;1.00
14401;DHT22;7285;50.894;5.462;2023-03-14T01:46:37;9.90;99.90
14401;DHT22;7285;50.894;5.462;2023-03-14T01:49:09;9.90;99.90
14401;DHT22;7285;50.894;5.462;2023-03-14T01:51:44;9.90;1.00
14401;DHT22;7285;50.894;5.462;2023-03-14T01:54:17;9.90;1.00
14401;DHT22;7285;50.894;5.462;2023-03-14T01:56:50;10.00;1.00
14401;DHT22;7285;50.894;5.462;2023-03-14T01:59:20;10.00;1.00
14401;DHT22;7285;50.894;5.462;2023-03-14T02:01:49;10.10;83.80
14401;DHT22;7285;50.894;5.462;2023-03-14T02:04:17;10.10;99.90
14401;DHT22;7285;50.894;5.462;2023-03-14T02:06:52;10.10;99.90
14401;DHT22;7285;50.894;5.462;2023-03-14T02:09:20;10.10;1.00
14401;DHT22;7285;50.894;5.462;2023-03-14T02:11:49;10.20;1.00
14401;DHT22;7285;50.894;5.462;2023-03-14T02:14:25;10.20;99.90
14401;DHT22;7285;50.894;5.462;2023-03-14T02:16:54;10.20;1.00
14401;DHT22;7285;50.894;5.462;2023-03-14T02:19:29;10.20;1.00
14401;DHT22;7285;50.894;5.462;2023-03-14T02:22:03;10.10;95.10
14401;DHT22;7285;50.894;5.462;2023-03-14T02:24:38;10.00;20.10
14401;DHT22;7285;50.894;5.462;2023-03-14T02:27:10;10.00;1.00
14401;DHT22;7285;50.894;5.462;2023-03-14T02:29:41;9.90;1.00
14401;DHT22;7285;50.894;5.462;2023-03-14T02:32:11;9.80;1.00
14401;DHT22;7285;50.894;5.462;2023-03-14T02:34:40;9.80;99.90
14401;DHT22;7285;50.894;5.462;2023-03-14T02:37:09;9.70;99.90
14401;DHT22;7285;50.894;5.462;2023-03-14T02:39:39;9.60;1.00
14401;DHT22;7285;50.894;5.462;2023-03-14T02:42:06;9.60;1.00
14401;DHT22;7285;50.894;5.462;2023-03-14T02:44:34;9.50;1.00
14401;DHT22;7285;50.894;5.462;2023-03-14T02:47:03;9.50;99.90
14401;DHT22;7285;50.894;5.462;2023-03-14T02:49:32;9.40;1.00
14401;DHT22;7285;50.894;5.462;2023-03-14T02:52:00;9.40;99.90
14401;DHT22;7285;50.894;5.462;2023-03-14T02:54:27;9.30;1.00
14401;DHT22;7285;50.894;5.462;2023-03-14T02:56:54;9.30;1.00
14401;DHT22;7285;50.894;5.462;2023-03-14T02:59:21;9.20;99.90
14401;DHT22;7285;50.894;5.462;2023-03-14T03:01:49;9.10;1.00
14401;DHT22;7285;50.894;5.462;2023-03-14T03:04:16;9.10;1.00
14401;DHT22;7285;50.894;5.462;2023-03-14T03:06:43;9.10;33.50
14401;DHT22;7285;50.894;5.462;2023-03-14T03:09:10;9.00;99.90
14401;DHT22;7285;50.894;5.462;2023-03-14T03:11:37;9.00;99.90
14401;DHT22;7285;50.894;5.462;2023-03-14T03:14:04;9.00;99.90
14401;DHT22;7285;50.894;5.462;2023-03-14T03:16:30;9.00;1.00
14401;DHT22;7285;50.894;5.462;2023-03-14T03:18:59;8.90;1.00
14401;DHT22;7285;50.894;5.462;2023-03-14T03:21:26;8.90;1.00
14401;DHT22;7285;50.894;5.462;2023-03-14T03:23:53;8.90;1.00
14401;DHT22;7285;50.894;5.462;2023-03-14T03:26:20;8.90;1.00
14401;DHT22;7285;50.894;5.462;2023-03-14T03:28:47;8.90;1.00
14401;DHT22;7285;50.894;5.462;2023-03-14T03:31:16;8.90;1.00
14401;DHT22;7285;50.894;5.462;2023-03-14T03:33:43;8.90;1.00
14401;DHT22;7285;50.894;5.462;2023-03-14T03:36:11;8.90;1.00
14401;DHT22;7285;50.894;5.462;2023-03-14T03:38:38;8.90;1.00
14401;DHT22;7285;50.894;5.462;2023-03-14T03:41:07;8.90;1.00
14401;DHT22;7285;50.894;5.462;2023-03-14T03:43:34;8.90;1.00
14401;DHT22;7285;50.894;5.462;2023-03-14T03:46:03;9.00;1.00
14401;DHT22;7285;50.894;5.462;2023-03-14T03:48:30;9.10;1.00
14401;DHT22;7285;50.894;5.462;2023-03-14T03:50:57;9.10;1.00
14401;DHT22;7285;50.894;5.462;2023-03-14T03:53:27;9.10;1.00
14401;DHT22;7285;50.894;5.462;2023-03-14T03:55:54;9.20;1.00
14401;DHT22;7285;50.894;5.462;2023-03-14T03:58:21;9.20;1.00
14401;DHT22;7285;50.894;5.462;2023-03-14T04:00:47;9.20;1.00
14401;DHT22;7285;50.894;5.462;2023-03-14T04:03:14;9.20;1.00
14401;DHT22;7285;50.894;5.462;2023-03-14T04:05:41;9.20;1.00
14401;DHT22;7285;50.894;5.462;2023-03-14T04:08:08;9.20;1.00
14401;DHT22;7285;50.894;5.462;2023-03-14T04:10:37;9.20;1.00
14401;DHT22;7285;50.894;5.462;2023-03-14T04:13:04;9.20;1.00
14401;DHT22;7285;50.894;5.462;2023-03-14T04:15:31;9.30;1.00
14401;DHT22;7285;50.894;5.462;2023-03-14T04:17:58;9.30;1.00
14401;DHT22;7285;50.894;5.462;2023-03-14T04:20:25;9.30;1.00
14401;DHT22;7285;50.894;5.462;2023-03-14T04:22:52;9.30;1.00
14401;DHT22;7285;50.894;5.462;2023-03-14T04:25:19;9.20;1.00
14401;DHT22;7285;50.894;5.462;2023-03-14T04:27:48;9.20;1.00
14401;DHT22;7285;50.894;5.462;2023-03-14T04:30:17;9.20;1.00
14401;DHT22;7285;50.894;5.462;2023-03-14T04:32:44;9.20;1.00
14401;DHT22;7285;50.894;5.462;2023-03-14T04:35:11;9.20;1.00
14401;DHT22;7285;50.894;5.462;2023-03-14T04:37:38;9.20;1.00
14401;DHT22;7285;50.894;5.462;2023-03-14T04:40:06;9.20;1.00
14401;DHT22;7285;50.894;5.462;2023-03-14T04:42:34;9.30;1.00
14401;DHT22;7285;50.894;5.462;2023-03-14T04:45:03;9.20;1.00
14401;DHT22;7285;50.894;5.462;2023-03-14T04:47:30;9.30;1.00
14401;DHT22;7285;50.894;5.462;2023-03-14T04:49:56;9.20;1.00
14401;DHT22;7285;50.894;5.462;2023-03-14T04:52:23;9.20;1.00
14401;DHT22;7285;50.894;5.462;2023-03-14T04:54:50;9.20;1.00
14401;DHT22;7285;50.894;5.462;2023-03-14T04:57:17;9.30;1.00
14401;DHT22;7285;50.894;5.462;2023-03-14T04:59:44;9.20;1.00
14401;DHT22;7285;50.894;5.462;2023-03-14T05:02:13;9.30;1.00
14401;DHT22;7285;50.894;5.462;2023-03-14T05:04:40;9.30;1.00
14401;DHT22;7285;50.894;5.462;2023-03-14T05:07:06;9.30;1.00
14401;DHT22;7285;50.894;5.462;2023-03-14T05:09:33;9.30;1.00
14401;DHT22;7285;50.894;5.462;2023-03-14T05:12:00;9.20;1.00
14401;DHT22;7285;50.894;5.462;2023-03-14T05:14:27;9.20;1.00
14401;DHT22;7285;50.894;5.462;2023-03-14T05:16:54;9.20;1.00
14401;DHT22;7285;50.894;5.462;2023-03-14T05:19:23;9.20;1.00
14401;DHT22;7285;50.894;5.462;2023-03-14T05:21:50;9.20;1.00
14401;DHT22;7285;50.894;5.462;2023-03-14T05:24:17;9.20;22.30
14401;DHT22;7285;50.894;5.462;2023-03-14T05:26:44;9.20;35.20
14401;DHT22;7285;50.894;5.462;2023-03-14T05:29:11;9.20;12.10
14401;DHT22;7285;50.894;5.462;2023-03-14T05:31:38;9.20;1.00
14401;DHT22;7285;50.894;5.462;2023-03-14T05:34:05;9.20;1.00
14401;DHT22;7285;50.894;5.462;2023-03-14T05:36:33;9.20;5.40
14401;DHT22;7285;50.894;5.462;2023-03-14T05:39:00;9.30;1.80
14401;DHT22;7285;50.894;5.462;2023-03-14T05:41:27;9.30;5.00
14401;DHT22;7285;50.894;5.462;2023-03-14T05:43:54;9.30;11.80
14401;DHT22;7285;50.894;5.462;2023-03-14T05:46:21;9.30;1.00
14401;DHT22;7285;50.894;5.462;2023-03-14T05:48:48;9.30;1.00
14401;DHT22;7285;50.894;5.462;2023-03-14T05:51:15;9.30;1.00
14401;DHT22;7285;50.894;5.462;2023-03-14T05:53:44;9.40;2.30
14401;DHT22;7285;50.894;5.462;2023-03-14T05:56:10;9.30;1.00
14401;DHT22;7285;50.894;5.462;2023-03-14T05:58:37;9.40;1.00
14401;DHT22;7285;50.894;5.462;2023-03-14T06:01:06;9.40;1.00
14401;DHT22;7285;50.894;5.462;2023-03-14T06:03:33;9.30;5.00
14401;DHT22;7285;50.894;5.462;2023-03-14T06:06:00;9.40;16.60
14401;DHT22;7285;50.894;5.462;2023-03-14T06:08:27;9.40;1.00
14401;DHT22;7285;50.894;5.462;2023-03-14T06:10:56;9.40;1.00
14401;DHT22;7285;50.894;5.462;2023-03-14T06:13:24;9.40;1.00
14401;DHT22;7285;50.894;5.462;2023-03-14T06:15:51;9.50;1.00
14401;DHT22;7285;50.894;5.462;2023-03-14T06:18:18;9.50;1.00
14401;DHT22;7285;50.894;5.462;2023-03-14T06:20:45;9.50;1.00
14401;DHT22;7285;50.894;5.462;2023-03-14T06:23:11;9.50;1.00
14401;DHT22;7285;50.894;5.462;2023-03-14T06:25:38;9.60;1.00
14401;DHT22;7285;50.894;5.462;2023-03-14T06:28:07;9.60;1.00
14401;DHT22;7285;50.894;5.462;2023-03-14T06:30:34;9.60;1.00
14401;DHT22;7285;50.894;5.462;2023-03-14T06:33:00;9.60;1.00
14401;DHT22;7285;50.894;5.462;2023-03-14T06:35:27;9.60;1.00
14401;DHT22;7285;50.894;5.462;2023-03-14T06:37:54;9.70;1.00
14401;DHT22;7285;50.894;5.462;2023-03-14T06:40:21;9.70;1.00
14401;DHT22;7285;50.894;5.462;2023-03-14T06:42:49;9.70;1.00
14401;DHT22;7285;50.894;5.462;2023-03-14T06:45:17;9.80;1.00
14401;DHT22;7285;50.894;5.462;2023-03-14T06:47:44;9.90;1.00
14401;DHT22;7285;50.894;5.462;2023-03-14T06:50:11;10.00;1.00
14401;DHT22;7285;50.894;5.462;2023-03-14T06:52:38;10.10;1.00
14401;DHT22;7285;50.894;5.462;2023-03-14T06:55:07;10.20;1.00
14401;DHT22;7285;50.894;5.462;2023-03-14T06:57:34;10.30;99.90
14401;DHT22;7285;50.894;5.462;2023-03-14T07:00:02;10.40;99.90
14401;DHT22;7285;50.894;5.462;2023-03-14T07:02:31;10.40;1.00
14401;DHT22;7285;50.894;5.462;2023-03-14T07:04:58;10.50;1.00
14401;DHT22;7285;50.894;5.462;2023-03-14T07:07:26;10.50;1.00
14401;DHT22;7285;50.894;5.462;2023-03-14T07:09:53;10.60;99.90
14401;DHT22;7285;50.894;5.462;2023-03-14T07:12:20;10.70;1.00
14401;DHT22;7285;50.894;5.462;2023-03-14T07:14:47;10.70;1.00
14401;DHT22;7285;50.894;5.462;2023-03-14T07:17:14;10.70;99.90
14401;DHT22;7285;50.894;5.462;2023-03-14T07:19:42;10.70;99.90
14401;DHT22;7285;50.894;5.462;2023-03-14T07:22:09;10.80;99.90
14401;DHT22;7285;50.894;5.462;2023-03-14T07:24:36;10.80;1.00
14401;DHT22;7285;50.894;5.462;2023-03-14T07:27:03;10.80;1.00
14401;DHT22;7285;50.894;5.462;2023-03-14T07:29:30;10.60;99.90
14401;DHT22;7285;50.894;5.462;2023-03-14T07:31:57;10.50;1.00
14401;DHT22;7285;50.894;5.462;2023-03-14T07:34:24;10.50;99.90
14401;DHT22;7285;50.894;5.462;2023-03-14T07:36:52;10.40;99.90
14401;DHT22;7285;50.894;5.462;2023-03-14T07:39:19;10.40;99.90
14401;DHT22;7285;50.894;5.462;2023-03-14T07:41:46;10.30;1.00
14401;DHT22;7285;50.894;5.462;2023-03-14T07:44:13;10.40;1.00
14401;DHT22;7285;50.894;5.462;2023-03-14T07:46:40;10.30;1.00
14401;DHT22;7285;50.894;5.462;2023-03-14T07:49:07;10.30;1.00
14401;DHT22;7285;50.894;5.462;2023-03-14T07:51:34;10.30;1.00
14401;DHT22;7285;50.894;5.462;2023-03-14T07:54:03;10.30;1.00
14401;DHT22;7285;50.894;5.462;2023-03-14T07:56:30;10.20;1.00
14401;DHT22;7285;50.894;5.462;2023-03-14T07:58:56;10.10;1.00
14401;DHT22;7285;50.894;5.462;2023-03-14T08:01:23;10.10;1.00
14401;DHT22;7285;50.894;5.462;2023-03-14T08:03:50;10.00;1.00
14401;DHT22;7285;50.894;5.462;2023-03-14T08:06:17;9.80;1.00
14401;DHT22;7285;50.894;5.462;2023-03-14T08:08:44;9.20;1.00
14401;DHT22;7285;50.894;5.462;2023-03-14T08:11:12;8.90;1.00
14401;DHT22;7285;50.894;5.462;2023-03-14T08:13:39;8.50;1.00
14401;DHT22;7285;50.894;5.462;2023-03-14T08:16:07;8.40;1.00
14401;DHT22;7285;50.894;5.462;2023-03-14T08:18:34;8.30;1.00
14401;DHT22;7285;50.894;5.462;2023-03-14T08:21:01;8.20;1.00
14401;DHT22;7285;50.894;5.462;2023-03-14T08:23:28;8.20;1.00
14401;DHT22;7285;50.894;5.462;2023-03-14T08:25:55;8.20;1.00
14401;DHT22;7285;50.894;5.462;2023-03-14T08:28:23;8.10;1.00
14401;DHT22;7285;50.894;5.462;2023-03-14T08:30:55;7.90;1.00
14401;DHT22;7285;50.894;5.462;2023-03-14T08:33:22;8.00;1.00
14401;DHT22;7285;50.894;5.462;2023-03-14T08:35:51;7.80;1.00
14401;DHT22;7285;50.894;5.462;2023-03-14T08:38:18;7.80;1.00
14401;DHT22;7285;50.894;5.462;2023-03-14T08:40:45;7.70;1.00
14401;DHT22;7285;50.894;5.462;2023-03-14T08:43:12;7.70;1.00
14401;DHT22;7285;50.894;5.462;2023-03-14T08:45:41;7.60;1.00
14401;DHT22;7285;50.894;5.462;2023-03-14T08:48:08;7.60;1.00
14401;DHT22;7285;50.894;5.462;2023-03-14T08:50:35;7.50;1.00
14401;DHT22;7285;50.894;5.462;2023-03-14T08:53:01;7.40;1.00
14401;DHT22;7285;50.894;5.462;2023-03-14T08:55:28;7.40;1.00
14401;DHT22;7285;50.894;5.462;2023-03-14T08:57:55;7.40;1.00
14401;DHT22;7285;50.894;5.462;2023-03-14T09:00:22;7.30;1.00
14401;DHT22;7285;50.894;5.462;2023-03-14T09:02:51;7.50;1.00
14401;DHT22;7285;50.894;5.462;2023-03-14T09:05:18;7.50;1.00
14401;DHT22;7285;50.894;5.462;2023-03-14T09:07:45;7.50;1.00
14401;DHT22;7285;50.894;5.462;2023-03-14T09:10:12;7.50;1.00
14401;DHT22;7285;50.894;5.462;2023-03-14T09:12:39;7.60;1.00
14401;DHT22;7285;50.894;5.462;2023-03-14T09:15:07;7.60;99.90
14401;DHT22;7285;50.894;5.462;2023-03-14T09:17:34;7.60;99.90
14401;DHT22;7285;50.894;5.462;2023-03-14T09:20:03;7.70;99.90
14401;DHT22;7285;50.894;5.462;2023-03-14T09:22:32;7.80;1.00
14401;DHT22;7285;50.894;5.462;2023-03-14T09:25:01;8.00;1.00
14401;DHT22;7285;50.894;5.462;2023-03-14T09:27:28;8.00;1.00
14401;DHT22;7285;50.894;5.462;2023-03-14T09:29:55;8.00;99.90
14401;DHT22;7285;50.894;5.462;2023-03-14T09:32:22;8.10;1.00
14401;DHT22;7285;50.894;5.462;2023-03-14T09:34:49;8.10;99.90
14401;DHT22;7285;50.894;5.462;2023-03-14T09:37:17;8.20;1.00
14401;DHT22;7285;50.894;5.462;2023-03-14T09:39:45;8.20;99.90
14401;DHT22;7285;50.894;5.462;2023-03-14T09:42:14;8.00;1.00
14401;DHT22;7285;50.894;5.462;2023-03-14T09:44:50;8.00;95.00
14401;DHT22;7285;50.894;5.462;2023-03-14T09:47:20;8.20;1.00
14401;DHT22;7285;50.894;5.462;2023-03-14T09:49:47;8.20;1.00
14401;DHT22;7285;50.894;5.462;2023-03-14T09:52:17;8.30;1.00
14401;DHT22;7285;50.894;5.462;2023-03-14T09:54:47;8.20;99.90
14401;DHT22;7285;50.894;5.462;2023-03-14T09:57:16;8.40;99.90
14401;DHT22;7285;50.894;5.462;2023-03-14T09:59:46;8.20;1.00
14401;DHT22;7285;50.894;5.462;2023-03-14T10:02:17;8.10;99.90
14401;DHT22;7285;50.894;5.462;2023-03-14T10:04:46;8.00;99.90
14401;DHT22;7285;50.894;5.462;2023-03-14T10:07:17;7.90;9.30
14401;DHT22;7285;50.894;5.462;2023-03-14T10:09:48;7.90;1.00
14401;DHT22;7285;50.894;5.462;2023-03-14T10:12:16;7.90;1.00
14401;DHT22;7285;50.894;5.462;2023-03-14T10:14:48;7.90;1.00
14401;DHT22;7285;50.894;5.462;2023-03-14T10:17:16;7.90;1.00
14401;DHT22;7285;50.894;5.462;2023-03-14T10:19:55;7.80;1.00
14401;DHT22;7285;50.894;5.462;2023-03-14T10:22:27;7.60;1.00
14401;DHT22;7285;50.894;5.462;2023-03-14T10:24:57;7.50;1.00
14401;DHT22;7285;50.894;5.462;2023-03-14T10:27:31;7.50;1.00
14401;DHT22;7285;50.894;5.462;2023-03-14T10:30:04;7.50;99.90
14401;DHT22;7285;50.894;5.462;2023-03-14T10:32:33;7.80;99.90
14401;DHT22;7285;50.894;5.462;2023-03-14T10:35:18;8.10;39.10
14401;DHT22;7285;50.894;5.462;2023-03-14T10:37:56;8.30;64.00
14401;DHT22;7285;50.894;5.462;2023-03-14T10:40:27;8.20;99.90
14401;DHT22;7285;50.894;5.462;2023-03-14T10:42:54;8.20;99.90
14401;DHT22;7285;50.894;5.462;2023-03-14T10:45:33;8.30;33.80
14401;DHT22;7285;50.894;5.462;2023-03-14T10:48:16;8.20;1.00
14401;DHT22;7285;50.894;5.462;2023-03-14T10:50:49;8.10;99.90
14401;DHT22;7285;50.894;5.462;2023-03-14T10:53:18;7.70;99.90
14401;DHT22;7285;50.894;5.462;2023-03-14T10:55:45;7.70;1.00
14401;DHT22;7285;50.894;5.462;2023-03-14T10:58:20;7.50;1.00
14401;DHT22;7285;50.894;5.462;2023-03-14T11:00:52;7.50;1.00
14401;DHT22;7285;50.894;5.462;2023-03-14T11:03:21;7.50;1.00
14401;DHT22;7285;50.894;5.462;2023-03-14T11:05:52;7.50;99.90
14401;DHT22;7285;50.894;5.462;2023-03-14T11:08:27;7.40;1.00
14401;DHT22;7285;50.894;5.462;2023-03-14T11:11:07;7.40;99.90
14401;DHT22;7285;50.894;5.462;2023-03-14T11:13:40;7.20;24.80
14401;DHT22;7285;50.894;5.462;2023-03-14T11:16:14;7.20;1.00
14401;DHT22;7285;50.894;5.462;2023-03-14T11:19:14;7.30;1.00
14401;DHT22;7285;50.894;5.462;2023-03-14T11:21:52;7.50;99.90
14401;DHT22;7285;50.894;5.462;2023-03-14T11:24:31;7.50;1.00
14401;DHT22;7285;50.894;5.462;2023-03-14T11:27:03;7.50;56.90
14401;DHT22;7285;50.894;5.462;2023-03-14T11:29:39;7.60;22.90
14401;DHT22;7285;50.894;5.462;2023-03-14T11:32:13;8.00;65.00
14401;DHT22;7285;50.894;5.462;2023-03-14T11:34:44;8.10;1.00
14401;DHT22;7285;50.894;5.462;2023-03-14T11:37:18;8.40;1.00
14401;DHT22;7285;50.894;5.462;2023-03-14T11:39:56;8.60;1.00
14401;DHT22;7285;50.894;5.462;2023-03-14T11:42:26;9.10;99.90
14401;DHT22;7285;50.894;5.462;2023-03-14T11:44:56;8.90;1.00
14401;DHT22;7285;50.894;5.462;2023-03-14T11:47:26;8.60;1.00
14401;DHT22;7285;50.894;5.462;2023-03-14T11:50:00;8.40;1.00
14401;DHT22;7285;50.894;5.462;2023-03-14T11:52:31;8.00;1.00
14401;DHT22;7285;50.894;5.462;2023-03-14T11:55:05;7.60;1.00
14401;DHT22;7285;50.894;5.462;2023-03-14T11:57:33;7.30;99.90
14401;DHT22;7285;50.894;5.462;2023-03-14T12:00:05;7.20;1.00
14401;DHT22;7285;50.894;5.462;2023-03-14T12:02:46;7.10;1.00
14401;DHT22;7285;50.894;5.462;2023-03-14T12:05:50;7.20;1.00
14401;DHT22;7285;50.894;5.462;2023-03-14T12:08:36;7.10;1.00
14401;DHT22;7285;50.894;5.462;2023-03-14T12:11:12;7.20;1.00
14401;DHT22;7285;50.894;5.462;2023-03-14T12:13:41;7.20;99.90
14401;DHT22;7285;50.894;5.462;2023-03-14T12:16:30;7.50;99.90
14401;DHT22;7285;50.894;5.462;2023-03-14T12:19:14;7.80;99.90
14401;DHT22;7285;50.894;5.462;2023-03-14T12:21:48;8.20;1.00
14401;DHT22;7285;50.894;5.462;2023-03-14T12:24:18;8.40;1.00
14401;DHT22;7285;50.894;5.462;2023-03-14T12:26:53;8.50;1.00
14401;DHT22;7285;50.894;5.462;2023-03-14T12:29:20;8.50;1.00
14401;DHT22;7285;50.894;5.462;2023-03-14T12:31:48;8.40;1.00
14401;DHT22;7285;50.894;5.462;2023-03-14T12:34:31;8.40;99.90
14401;DHT22;7285;50.894;5.462;2023-03-14T12:37:14;8.00;99.90
14401;DHT22;7285;50.894;5.462;2023-03-14T12:39:50;7.70;99.90
14401;DHT22;7285;50.894;5.462;2023-03-14T12:42:35;7.20;99.90
14401;DHT22;7285;50.894;5.462;2023-03-14T12:45:25;6.90;99.90
14401;DHT22;7285;50.894;5.462;2023-03-14T12:48:01;6.80;99.90
14401;DHT22;7285;50.894;5.462;2023-03-14T12:50:36;6.70;1.00
14401;DHT22;7285;50.894;5.462;2023-03-14T12:53:44;6.60;1.00
14401;DHT22;7285;50.894;5.462;2023-03-14T12:56:43;6.40;99.90
14401;DHT22;7285;50.894;5.462;2023-03-14T12:59:31;6.30;1.00
14401;DHT22;7285;50.894;5.462;2023-03-14T13:02:17;6.20;1.00
14401;DHT22;7285;50.894;5.462;2023-03-14T13:04:48;6.00;92.50
14401;DHT22;7285;50.894;5.462;2023-03-14T13:07:34;6.00;99.90
14401;DHT22;7285;50.894;5.462;2023-03-14T13:10:18;6.00;1.00
14401;DHT22;7285;50.894;5.462;2023-03-14T13:12:49;6.10;99.90
14401;DHT22;7285;50.894;5.462;2023-03-14T13:15:22;6.20;1.00
14401;DHT22;7285;50.894;5.462;2023-03-14T13:17:51;6.10;1.00
14401;DHT22;7285;50.894;5.462;2023-03-14T13:20:24;6.20;1.00
14401;DHT22;7285;50.894;5.462;2023-03-14T13:22:53;6.30;36.40
14401;DHT22;7285;50.894;5.462;2023-03-14T13:25:20;6.20;18.20
14401;DHT22;7285;50.894;5.462;2023-03-14T13:27:48;6.20;1.00
14401;DHT22;7285;50.894;5.462;2023-03-14T13:30:20;6.20;1.00
14401;DHT22;7285;50.894;5.462;2023-03-14T13:32:49;6.10;1.00
14401;DHT22;7285;50.894;5.462;2023-03-14T13:35:19;6.20;1.00
14401;DHT22;7285;50.894;5.462;2023-03-14T13:37:47;6.20;1.00
14401;DHT22;7285;50.894;5.462;2023-03-14T13:40:25;6.20;99.90
14401;DHT22;7285;50.894;5.462;2023-03-14T13:43:01;6.20;1.00
14401;DHT22;7285;50.894;5.462;2023-03-14T13:45:31;6.40;99.90
14401;DHT22;7285;50.894;5.462;2023-03-14T13:47:58;6.40;99.90
14401;DHT22;7285;50.894;5.462;2023-03-14T13:50:25;6.40;11.80
14401;DHT22;7285;50.894;5.462;2023-03-14T13:52:55;6.20;99.90
14401;DHT22;7285;50.894;5.462;2023-03-14T13:55:23;6.20;99.90
14401;DHT22;7285;50.894;5.462;2023-03-14T13:57:52;6.20;99.90
14401;DHT22;7285;50.894;5.462;2023-03-14T14:00:22;6.30;1.00
14401;DHT22;7285;50.894;5.462;2023-03-14T14:02:54;6.20;99.90
14401;DHT22;7285;50.894;5.462;2023-03-14T14:05:21;6.20;99.90
14401;DHT22;7285;50.894;5.462;2023-03-14T14:07:49;6.30;99.90
14401;DHT22;7285;50.894;5.462;2023-03-14T14:10:17;6.30;99.90
14401;DHT22;7285;50.894;5.462;2023-03-14T14:12:47;6.30;1.00
14401;DHT22;7285;50.894;5.462;2023-03-14T14:15:20;6.50;99.90
14401;DHT22;7285;50.894;5.462;2023-03-14T14:17:51;6.40;1.00
14401;DHT22;7285;50.894;5.462;2023-03-14T14:20:23;6.50;99.90
14401;DHT22;7285;50.894;5.462;2023-03-14T14:22:57;6.70;99.90
14401;DHT22;7285;50.894;5.462;2023-03-14T14:25:25;6.80;99.90
14401;DHT22;7285;50.894;5.462;2023-03-14T14:27:52;6.60;99.90
14401;DHT22;7285;50.894;5.462;2023-03-14T14:30:28;6.70;1.00
14401;DHT22;7285;50.894;5.462;2023-03-14T14:33:15;6.80;1.00
14401;DHT22;7285;50.894;5.462;2023-03-14T14:35:51;6.70;99.90
14401;DHT22;7285;50.894;5.462;2023-03-14T14:38:18;6.70;1.00
14401;DHT22;7285;50.894;5.462;2023-03-14T14:40:50;6.70;14.30
14401;DHT22;7285;50.894;5.462;2023-03-14T14:43:21;6.70;1.00
14401;DHT22;7285;50.894;5.462;2023-03-14T14:45:50;6.60;1.00
14401;DHT22;7285;50.894;5.462;2023-03-14T14:48:21;6.50;99.90
14401;DHT22;7285;50.894;5.462;2023-03-14T14:50:59;6.40;1.00
14401;DHT22;7285;50.894;5.462;2023-03-14T14:53:30;6.40;1.00
14401;DHT22;7285;50.894;5.462;2023-03-14T14:55:59;6.40;99.90
14401;DHT22;7285;50.894;5.462;2023-03-14T14:58:34;6.50;99.90
14401;DHT22;7285;50.894;5.462;2023-03-14T15:01:05;6.40;1.00
14401;DHT22;7285;50.894;5.462;2023-03-14T15:03:34;6.40;1.00
14401;DHT22;7285;50.894;5.462;2023-03-14T15:06:04;6.40;1.00
14401;DHT22;7285;50.894;5.462;2023-03-14T15:08:31;6.50;99.90
14401;DHT22;7285;50.894;5.462;2023-03-14T15:10:58;6.50;99.90
14401;DHT22;7285;50.894;5.462;2023-03-14T15:13:25;6.60;99.90
14401;DHT22;7285;50.894;5.462;2023-03-14T15:15:53;6.70;1.00
14401;DHT22;7285;50.894;5.462;2023-03-14T15:18:23;6.50;99.90
14401;DHT22;7285;50.894;5.462;2023-03-14T15:20:51;6.50;1.00
14401;DHT22;7285;50.894;5.462;2023-03-14T15:23:20;6.40;1.00
14401;DHT22;7285;50.894;5.462;2023-03-14T15:25:48;6.40;99.90
14401;DHT22;7285;50.894;5.462;2023-03-14T15:28:17;6.40;99.90
14401;DHT22;7285;50.894;5.462;2023-03-14T15:30:46;6.40;1.00
14401;DHT22;7285;50.894;5.462;2023-03-14T15:33:14;6.40;99.90
14401;DHT22;7285;50.894;5.462;2023-03-14T15:35:41;6.40;99.90
14401;DHT22;7285;50.894;5.462;2023-03-14T15:38:10;6.40;1.00
14401;DHT22;7285;50.894;5.462;2023-03-14T15:40:40;6.50;1.00
14401;DHT22;7285;50.894;5.462;2023-03-14T15:43:07;6.50;99.90
14401;DHT22;7285;50.894;5.462;2023-03-14T15:45:34;6.40;1.00
14401;DHT22;7285;50.894;5.462;2023-03-14T15:48:02;6.30;99.90
14401;DHT22;7285;50.894;5.462;2023-03-14T15:50:29;6.20;1.00
14401;DHT22;7285;50.894;5.462;2023-03-14T15:52:56;6.20;1.00
14401;DHT22;7285;50.894;5.462;2023-03-14T15:55:23;6.00;1.00
14401;DHT22;7285;50.894;5.462;2023-03-14T15:57:51;5.90;1.00
14401;DHT22;7285;50.894;5.462;2023-03-14T16:00:20;5.80;99.90
14401;DHT22;7285;50.894;5.462;2023-03-14T16:02:48;5.80;99.90
14401;DHT22;7285;50.894;5.462;2023-03-14T16:05:16;5.80;99.90
14401;DHT22;7285;50.894;5.462;2023-03-14T16:07:44;5.70;80.40
14401;DHT22;7285;50.894;5.462;2023-03-14T16:10:12;5.70;1.00
14401;DHT22;7285;50.894;5.462;2023-03-14T16:12:39;5.70;1.00
14401;DHT22;7285;50.894;5.462;2023-03-14T16:15:09;5.80;1.00
14401;DHT22;7285;50.894;5.462;2023-03-14T16:17:37;5.80;1.00
14401;DHT22;7285;50.894;5.462;2023-03-14T16:20:06;5.80;1.00
14401;DHT22;7285;50.894;5.462;2023-03-14T16:22:34;5.80;1.00
14401;DHT22;7285;50.894;5.462;2023-03-14T16:25:02;5.80;1.00